Time;durP1;ratioP1;P1;durP2;ratioP2;P2;SDS_P1;SDS_P2;PMS_P1;PMS_P2;Temp;Humidity;BMP_temperature;BMP_pressure;BME280_temperature;BME280_humidity;BME280_pressure;Samples;Min_cycle;Max_cycle;Signal;HPM_P1;HPM_P2
2021/07/11 00:00:32;;;;;;;4.97;4.45;;;17.80;99.90;;;;;;4862123;29;20468;-76
2021/07/11 00:02:58;;;;;;;4.50;4.10;;;17.80;99.90;;;;;;4884951;29;20967;-80
2021/07/11 00:05:24;;;;;;;4.57;3.40;;;17.80;99.90;;;;;;4893013;29;20399;-78
2021/07/11 00:07:50;;;;;;;3.20;2.90;;;17.70;99.90;;;;;;4877166;29;21045;-82
2021/07/11 00:10:15;;;;;;;3.28;2.95;;;17.70;99.90;;;;;;4893683;29;20502;-81
2021/07/11 00:12:42;;;;;;;3.13;2.83;;;17.70;99.90;;;;;;4870396;29;20436;-77
2021/07/11 00:15:09;;;;;;;2.77;2.47;;;17.70;99.90;;;;;;4890652;29;20950;-78
2021/07/11 00:17:35;;;;;;;3.38;2.90;;;17.60;99.90;;;;;;4879965;29;20436;-77
2021/07/11 00:20:03;;;;;;;3.83;2.92;;;17.50;99.90;;;;;;4892961;29;20411;-79
2021/07/11 00:22:29;;;;;;;3.80;3.35;;;17.50;99.90;;;;;;4902375;29;20405;-82
2021/07/11 00:24:54;;;;;;;2.90;2.70;;;17.50;99.90;;;;;;4905206;29;20882;-81
2021/07/11 00:27:20;;;;;;;2.50;2.40;;;17.50;99.90;;;;;;4877463;29;20395;-84
2021/07/11 00:29:46;;;;;;;5.30;2.83;;;17.50;99.90;;;;;;4882323;29;20428;-78
2021/07/11 00:32:11;;;;;;;3.00;2.80;;;17.40;99.90;;;;;;4901205;29;20411;-79
2021/07/11 00:34:37;;;;;;;3.33;2.70;;;17.40;99.90;;;;;;4876859;29;21125;-77
2021/07/11 00:37:03;;;;;;;2.90;2.70;;;17.30;99.90;;;;;;4899713;29;20406;-79
2021/07/11 00:39:29;;;;;;;2.88;2.67;;;17.30;99.90;;;;;;4889916;29;20488;-80
2021/07/11 00:41:56;;;;;;;3.15;2.85;;;17.30;99.90;;;;;;4894452;29;20903;-79
2021/07/11 00:44:21;;;;;;;3.17;2.87;;;17.30;99.90;;;;;;4889072;29;20426;-78
2021/07/11 00:46:49;;;;;;;3.25;2.95;;;17.20;99.90;;;;;;4877080;29;20491;-77
2021/07/11 00:49:17;;;;;;;3.85;3.08;;;17.20;99.90;;;;;;4889094;29;20477;-77
2021/07/11 00:51:44;;;;;;;3.10;2.90;;;17.20;99.90;;;;;;4904016;29;20466;-77
2021/07/11 00:54:14;;;;;;;3.22;2.92;;;17.20;99.90;;;;;;4882094;29;20510;-77
2021/07/11 00:56:44;;;;;;;3.00;2.70;;;17.10;99.90;;;;;;4891794;29;20936;-77
2021/07/11 00:59:10;;;;;;;5.90;2.97;;;17.10;99.90;;;;;;4898904;29;20491;-76
2021/07/11 01:01:41;;;;;;;2.90;2.70;;;17.00;99.90;;;;;;4888046;29;20981;-77
2021/07/11 01:04:12;;;;;;;2.90;2.60;;;17.00;99.90;;;;;;4863918;29;20485;-80
2021/07/11 01:06:40;;;;;;;3.17;2.87;;;17.00;99.90;;;;;;4863933;29;20419;-77
2021/07/11 01:09:10;;;;;;;3.20;2.90;;;16.90;99.90;;;;;;4878184;29;20502;-79
2021/07/11 01:11:43;;;;;;;3.00;2.70;;;16.90;99.90;;;;;;4877706;29;20471;-81
2021/07/11 01:14:09;;;;;;;4.68;3.03;;;16.90;99.90;;;;;;4877062;29;20557;-79
2021/07/11 01:16:36;;;;;;;3.17;2.88;;;16.90;99.90;;;;;;4878596;29;20405;-79
2021/07/11 01:19:08;;;;;;;3.38;3.08;;;16.80;99.90;;;;;;4895362;29;20405;-80
2021/07/11 01:21:36;;;;;;;3.77;2.77;;;16.80;99.90;;;;;;4896144;29;20650;-80
2021/07/11 01:24:07;;;;;;;3.03;2.80;;;16.80;99.90;;;;;;4895801;29;20490;-79
2021/07/11 01:26:34;;;;;;;3.07;2.77;;;16.70;99.90;;;;;;4894765;29;21017;-80
2021/07/11 01:29:03;;;;;;;3.50;3.20;;;16.70;99.90;;;;;;4894670;29;20420;-79
2021/07/11 01:31:31;;;;;;;8.00;3.15;;;16.70;99.90;;;;;;4894908;29;20448;-83
2021/07/11 01:33:56;;;;;;;2.80;2.60;;;16.70;99.90;;;;;;4896263;29;20397;-79
2021/07/11 01:36:24;;;;;;;3.20;3.00;;;16.70;99.90;;;;;;4895758;29;20445;-81
2021/07/11 01:38:51;;;;;;;3.15;2.85;;;16.60;99.90;;;;;;4886671;29;20463;-80
2021/07/11 01:41:18;;;;;;;2.95;2.75;;;16.50;99.90;;;;;;4877553;29;20439;-80
2021/07/11 01:43:45;;;;;;;3.55;3.25;;;16.50;99.90;;;;;;4878518;29;20441;-80
2021/07/11 01:46:11;;;;;;;3.53;2.88;;;16.50;99.90;;;;;;4877810;29;20417;-80
2021/07/11 01:48:38;;;;;;;4.95;2.97;;;16.40;99.90;;;;;;4878574;29;20449;-80
2021/07/11 01:51:04;;;;;;;2.90;2.70;;;16.40;99.90;;;;;;4886291;29;20410;-81
2021/07/11 01:53:37;;;;;;;5.72;3.40;;;16.30;99.90;;;;;;4895185;29;20395;-83
2021/07/11 01:56:04;;;;;;;3.28;2.97;;;16.30;99.90;;;;;;4862541;29;20608;-80
2021/07/11 01:58:30;;;;;;;2.90;2.70;;;16.20;99.90;;;;;;4877278;29;20438;-79
2021/07/11 02:00:58;;;;;;;5.18;3.47;;;16.20;99.90;;;;;;4875832;29;20405;-80
2021/07/11 02:03:27;;;;;;;4.68;3.10;;;16.20;99.90;;;;;;4871227;29;20435;-80
2021/07/11 02:06:01;;;;;;;3.97;3.08;;;16.20;99.90;;;;;;4876345;29;20438;-81
2021/07/11 02:08:31;;;;;;;3.63;3.30;;;16.20;99.90;;;;;;4875999;29;20433;-80
2021/07/11 02:10:59;;;;;;;3.85;3.25;;;16.20;99.90;;;;;;4875946;29;20847;-79
2021/07/11 02:13:58;;;;;;;2.88;2.67;;;16.10;99.90;;;;;;4877555;29;20410;-80
2021/07/11 02:16:27;;;;;;;2.85;2.65;;;16.10;99.90;;;;;;4875127;29;20414;-82
2021/07/11 02:18:56;;;;;;;4.17;3.10;;;16.10;99.90;;;;;;4876250;29;20402;-80
2021/07/11 02:21:25;;;;;;;2.70;2.50;;;16.00;99.90;;;;;;4876055;29;20413;-80
2021/07/11 02:23:52;;;;;;;3.03;2.83;;;16.00;99.90;;;;;;4875650;29;20418;-79
2021/07/11 02:26:20;;;;;;;3.73;3.30;;;16.00;99.90;;;;;;4875699;29;20409;-81
2021/07/11 02:28:47;;;;;;;3.28;2.97;;;16.00;99.90;;;;;;4876143;29;20419;-79
2021/07/11 02:31:13;;;;;;;2.92;2.72;;;16.10;99.90;;;;;;4875461;29;20407;-80
2021/07/11 02:33:41;;;;;;;3.67;3.38;;;16.00;99.90;;;;;;4891639;29;20414;-80
2021/07/11 02:36:22;;;;;;;3.43;3.13;;;16.00;99.90;;;;;;4892618;29;20549;-79
2021/07/11 02:39:00;;;;;;;3.97;3.67;;;16.00;99.90;;;;;;4876249;29;20463;-79
2021/07/11 02:41:29;;;;;;;4.00;3.40;;;16.00;99.90;;;;;;4860670;29;20404;-78
2021/07/11 02:43:59;;;;;;;3.30;2.95;;;16.00;99.90;;;;;;4861122;29;20405;-78
2021/07/11 02:46:30;;;;;;;3.20;2.97;;;16.00;99.90;;;;;;4859023;29;20411;-78
2021/07/11 02:48:56;;;;;;;3.20;2.90;;;16.00;99.90;;;;;;4862658;29;20425;-78
2021/07/11 02:51:25;;;;;;;3.80;3.47;;;15.90;99.90;;;;;;4889415;29;20830;-78
2021/07/11 02:53:58;;;;;;;3.22;2.95;;;15.90;99.90;;;;;;4881219;29;20421;-78
2021/07/11 02:56:24;;;;;;;3.97;2.83;;;15.90;99.90;;;;;;4881577;29;20825;-78
2021/07/11 02:58:53;;;;;;;3.50;3.20;;;15.90;99.90;;;;;;4874250;29;20772;-78
2021/07/11 03:01:19;;;;;;;3.20;3.00;;;15.90;99.90;;;;;;4874116;29;20495;-78
2021/07/11 03:03:49;;;;;;;4.68;3.55;;;15.90;99.90;;;;;;4874380;29;20414;-78
2021/07/11 03:06:17;;;;;;;4.03;3.53;;;15.90;99.90;;;;;;4868670;29;20445;-78
2021/07/11 03:08:44;;;;;;;3.33;3.03;;;15.90;99.90;;;;;;4876266;29;20428;-80
2021/07/11 03:11:21;;;;;;;3.72;3.33;;;15.90;99.90;;;;;;4873250;29;20484;-77
2021/07/11 03:13:46;;;;;;;3.40;3.10;;;15.90;99.90;;;;;;4874917;29;20666;-78
2021/07/11 03:16:14;;;;;;;3.00;2.70;;;15.90;99.90;;;;;;4872873;29;20430;-79
2021/07/11 03:18:43;;;;;;;3.63;3.30;;;15.90;99.90;;;;;;4860938;29;20483;-78
2021/07/11 03:21:10;;;;;;;3.20;3.00;;;16.00;99.90;;;;;;4859065;29;20418;-77
2021/07/11 03:23:42;;;;;;;3.10;2.80;;;15.90;99.90;;;;;;4894550;29;20966;-80
2021/07/11 03:26:08;;;;;;;3.17;2.97;;;16.00;99.90;;;;;;4895114;29;20405;-82
2021/07/11 03:28:35;;;;;;;3.50;3.20;;;16.00;99.90;;;;;;4898341;29;20421;-80
2021/07/11 03:31:03;;;;;;;3.33;3.10;;;16.00;99.90;;;;;;4878279;29;20819;-82
2021/07/11 03:33:29;;;;;;;2.95;2.70;;;16.00;99.90;;;;;;4858990;29;20790;-81
2021/07/11 03:35:58;;;;;;;3.45;3.17;;;16.00;99.90;;;;;;4866303;29;20399;-80
2021/07/11 03:38:43;;;;;;;3.17;2.97;;;16.10;99.90;;;;;;4851492;29;20758;-80
2021/07/11 03:41:12;;;;;;;3.33;2.97;;;16.10;99.90;;;;;;4875532;29;20403;-81
2021/07/11 03:43:39;;;;;;;3.65;3.35;;;16.20;99.90;;;;;;4875802;29;20479;-82
2021/07/11 03:46:07;;;;;;;3.50;3.20;;;16.20;99.90;;;;;;4874712;29;20410;-80
2021/07/11 03:48:45;;;;;;;4.63;2.90;;;16.20;99.90;;;;;;4867629;29;20430;-80
2021/07/11 03:51:10;;;;;;;3.30;3.00;;;16.30;99.90;;;;;;4877107;29;20399;-81
2021/07/11 03:53:36;;;;;;;2.90;2.63;;;16.40;99.90;;;;;;4875184;29;20412;-80
2021/07/11 03:56:03;;;;;;;3.20;2.90;;;16.40;99.90;;;;;;4875647;29;20410;-81
2021/07/11 03:58:33;;;;;;;3.15;2.95;;;16.50;99.90;;;;;;4860441;29;20422;-81
2021/07/11 04:00:59;;;;;;;3.50;2.88;;;16.50;99.90;;;;;;4881947;29;20416;-80
2021/07/11 04:03:25;;;;;;;3.13;2.93;;;16.60;99.90;;;;;;4893786;29;20405;-80
2021/07/11 04:05:50;;;;;;;3.03;2.83;;;16.70;99.90;;;;;;4894238;29;20401;-80
2021/07/11 04:08:17;;;;;;;3.10;2.80;;;16.70;99.90;;;;;;4894464;29;20398;-81
2021/07/11 04:10:43;;;;;;;3.50;2.80;;;16.80;99.90;;;;;;4894419;29;20404;-80
2021/07/11 04:13:09;;;;;;;3.53;3.23;;;16.90;99.90;;;;;;4897017;29;20401;-83
2021/07/11 04:15:34;;;;;;;3.30;2.85;;;17.00;99.90;;;;;;4898312;29;20409;-83
2021/07/11 04:18:08;;;;;;;3.40;3.10;;;17.10;99.90;;;;;;4897410;29;20450;-80
2021/07/11 04:20:34;;;;;;;3.45;3.15;;;17.10;99.90;;;;;;4879354;29;20564;-80
2021/07/11 04:23:00;;;;;;;2.83;2.63;;;17.20;99.90;;;;;;4863317;29;20465;-82
2021/07/11 04:25:29;;;;;;;3.80;3.17;;;17.30;99.90;;;;;;4869576;29;20405;-80
2021/07/11 04:27:55;;;;;;;3.17;2.85;;;17.40;99.90;;;;;;4897721;29;20397;-81
2021/07/11 04:30:21;;;;;;;3.15;2.85;;;17.60;99.90;;;;;;4895646;29;20416;-81
2021/07/11 04:32:46;;;;;;;3.50;3.20;;;17.60;99.90;;;;;;4897170;29;20416;-80
2021/07/11 04:35:12;;;;;;;2.70;2.50;;;17.80;99.90;;;;;;4897499;29;20393;-80
2021/07/11 04:37:38;;;;;;;3.50;3.20;;;17.90;99.90;;;;;;4885658;29;20419;-79
2021/07/11 04:40:04;;;;;;;3.38;3.08;;;18.10;99.90;;;;;;4869569;29;20423;-79
2021/07/11 04:42:30;;;;;;;3.15;2.85;;;18.10;99.90;;;;;;4896201;29;20480;-81
2021/07/11 04:44:56;;;;;;;3.30;2.90;;;18.10;99.90;;;;;;4896311;29;20517;-80
2021/07/11 04:47:22;;;;;;;3.35;3.05;;;18.20;99.90;;;;;;4912402;29;20409;-80
2021/07/11 04:49:48;;;;;;;3.30;2.70;;;18.30;99.90;;;;;;4882149;29;20422;-84
2021/07/11 04:52:13;;;;;;;3.33;3.03;;;18.40;99.90;;;;;;4877936;29;20405;-80
2021/07/11 04:54:39;;;;;;;3.37;3.07;;;18.50;99.90;;;;;;4878238;29;20403;-80
2021/07/11 04:57:05;;;;;;;3.22;2.92;;;18.60;99.90;;;;;;4870204;29;20405;-80
2021/07/11 04:59:30;;;;;;;3.50;3.20;;;18.80;99.90;;;;;;4896731;29;20428;-80
2021/07/11 05:01:56;;;;;;;2.55;2.40;;;18.90;99.90;;;;;;4883502;29;20415;-80
2021/07/11 05:04:22;;;;;;;4.03;3.25;;;19.10;99.90;;;;;;4878444;29;20994;-80
2021/07/11 05:06:48;;;;;;;2.60;2.40;;;19.20;99.90;;;;;;4866996;29;20407;-81
2021/07/11 05:09:13;;;;;;;2.83;2.63;;;19.40;99.90;;;;;;4885907;29;20770;-80
2021/07/11 05:11:39;;;;;;;3.10;2.80;;;19.50;99.90;;;;;;4877303;29;20451;-84
2021/07/11 05:14:05;;;;;;;2.85;2.65;;;19.70;99.90;;;;;;4878698;29;20413;-83
2021/07/11 05:16:31;;;;;;;2.83;2.40;;;19.80;99.90;;;;;;4876937;29;20422;-81
2021/07/11 05:18:56;;;;;;;2.85;2.65;;;20.10;99.90;;;;;;4862651;29;20409;-82
2021/07/11 05:21:22;;;;;;;2.57;2.37;;;20.20;99.90;;;;;;4886688;29;20946;-81
2021/07/11 05:23:48;;;;;;;2.90;2.70;;;20.30;99.90;;;;;;4875548;29;20847;-81
2021/07/11 05:26:13;;;;;;;2.65;2.45;;;20.40;99.90;;;;;;4886685;29;20499;-81
2021/07/11 05:28:44;;;;;;;2.60;2.40;;;20.60;99.90;;;;;;4890438;29;20446;-82
2021/07/11 05:31:11;;;;;;;2.35;2.25;;;20.70;99.90;;;;;;4861736;29;20505;-81
2021/07/11 05:33:36;;;;;;;2.05;1.95;;;20.80;99.90;;;;;;4901803;29;21029;-81
2021/07/11 05:36:02;;;;;;;2.37;2.17;;;20.90;99.90;;;;;;4903930;29;20397;-81
2021/07/11 05:38:28;;;;;;;2.38;2.17;;;21.00;99.90;;;;;;4879268;29;20409;-82
2021/07/11 05:40:54;;;;;;;3.03;2.60;;;21.10;99.90;;;;;;4877648;29;20406;-80
2021/07/11 05:43:19;;;;;;;2.72;2.50;;;21.10;99.90;;;;;;4876384;29;20418;-82
2021/07/11 05:45:45;;;;;;;3.60;2.00;;;21.10;99.90;;;;;;4891579;29;20406;-82
2021/07/11 05:48:11;;;;;;;2.40;2.20;;;21.30;99.90;;;;;;4896721;29;20438;-80
2021/07/11 05:50:37;;;;;;;2.15;2.05;;;21.50;99.90;;;;;;4891802;29;20447;-80
2021/07/11 05:53:02;;;;;;;2.60;2.30;;;21.70;99.90;;;;;;4900220;29;20830;-80
2021/07/11 05:55:28;;;;;;;2.42;2.22;;;21.90;99.90;;;;;;4896290;29;20410;-80
2021/07/11 05:57:53;;;;;;;4.28;2.42;;;21.90;99.90;;;;;;4882798;29;20800;-81
2021/07/11 06:00:19;;;;;;;2.53;2.30;;;21.90;99.90;;;;;;4876183;29;20411;-83
2021/07/11 06:02:45;;;;;;;1.85;1.75;;;21.90;99.90;;;;;;4876868;29;20423;-80
2021/07/11 06:05:11;;;;;;;2.30;2.10;;;22.10;99.90;;;;;;4891979;29;20438;-81
2021/07/11 06:07:37;;;;;;;2.00;1.90;;;22.20;99.90;;;;;;4876567;29;20410;-81
2021/07/11 06:10:04;;;;;;;1.80;1.70;;;22.40;99.90;;;;;;4860750;29;20419;-81
2021/07/11 06:12:30;;;;;;;2.42;1.98;;;22.60;99.90;;;;;;4876512;29;20407;-79
2021/07/11 06:14:56;;;;;;;2.20;2.00;;;22.70;99.90;;;;;;4875883;29;20407;-78
2021/07/11 06:17:22;;;;;;;2.10;1.90;;;22.70;99.90;;;;;;4874786;29;20418;-79
2021/07/11 06:19:51;;;;;;;2.83;2.00;;;22.90;99.90;;;;;;4891466;29;20419;-78
2021/07/11 06:22:17;;;;;;;2.45;2.10;;;23.00;99.90;;;;;;4877381;29;21650;-80
2021/07/11 06:24:42;;;;;;;1.70;1.60;;;23.20;99.90;;;;;;4860466;29;20410;-78
2021/07/11 06:27:08;;;;;;;1.95;1.83;;;23.30;99.90;;;;;;4876692;29;20391;-78
2021/07/11 06:29:34;;;;;;;2.10;2.00;;;23.40;99.90;;;;;;4875716;29;20421;-79
2021/07/11 06:31:59;;;;;;;2.60;1.77;;;23.50;99.90;;;;;;4859964;29;20418;-78
2021/07/11 06:34:25;;;;;;;2.00;1.90;;;23.50;99.90;;;;;;4861660;29;20399;-82
2021/07/11 06:36:51;;;;;;;3.30;1.95;;;23.70;99.90;;;;;;4890512;29;20403;-78
2021/07/11 06:39:18;;;;;;;1.88;1.77;;;23.80;99.90;;;;;;4860518;29;20441;-78
2021/07/11 06:41:43;;;;;;;2.05;1.75;;;23.90;99.90;;;;;;4876059;29;20402;-78
2021/07/11 06:44:09;;;;;;;1.70;1.60;;;24.00;99.90;;;;;;4860715;29;20407;-78
2021/07/11 06:46:35;;;;;;;1.87;1.70;;;24.10;99.90;;;;;;4862086;29;20486;-78
2021/07/11 06:49:01;;;;;;;1.70;1.60;;;24.30;99.90;;;;;;4883696;29;20433;-78
2021/07/11 06:51:26;;;;;;;1.70;1.60;;;24.50;99.90;;;;;;4876578;29;20418;-78
2021/07/11 06:53:52;;;;;;;1.73;1.63;;;24.70;99.90;;;;;;4879534;29;20795;-78
2021/07/11 06:56:17;;;;;;;1.30;1.30;;;24.60;99.90;;;;;;4883442;29;20448;-78
2021/07/11 06:58:43;;;;;;;1.23;1.20;;;24.70;99.90;;;;;;4882734;29;20445;-77
2021/07/11 07:01:09;;;;;;;1.50;1.40;;;24.90;99.90;;;;;;4857647;29;24947;-77
2021/07/11 07:03:35;;;;;;;1.45;1.35;;;25.10;99.90;;;;;;4908997;29;20822;-77
2021/07/11 07:06:00;;;;;;;1.70;1.60;;;25.20;99.90;;;;;;4905811;29;20472;-77
2021/07/11 07:08:28;;;;;;;1.70;1.60;;;25.40;99.90;;;;;;4874209;29;20947;-77
2021/07/11 07:10:53;;;;;;;2.00;1.60;;;25.50;99.90;;;;;;4888195;29;20398;-78
2021/07/11 07:13:20;;;;;;;1.63;1.52;;;25.70;99.90;;;;;;4863528;29;20968;-77
2021/07/11 07:15:46;;;;;;;1.60;1.50;;;25.80;99.90;;;;;;4873714;29;20425;-79
2021/07/11 07:18:11;;;;;;;4.85;1.52;;;25.80;99.90;;;;;;4859857;29;20806;-79
2021/07/11 07:20:37;;;;;;;1.57;1.47;;;25.80;99.90;;;;;;4890864;29;20391;-77
2021/07/11 07:23:03;;;;;;;1.35;1.30;;;25.90;99.90;;;;;;4886466;29;20423;-79
2021/07/11 07:25:29;;;;;;;1.20;1.20;;;25.90;99.90;;;;;;4886393;29;20412;-79
2021/07/11 07:27:54;;;;;;;1.48;1.38;;;26.10;99.90;;;;;;4891518;29;20464;-79
2021/07/11 07:30:20;;;;;;;1.10;1.10;;;26.30;99.90;;;;;;4889336;29;20418;-79
2021/07/11 07:32:48;;;;;;;1.47;1.37;;;26.60;99.90;;;;;;4909700;29;20409;-79
2021/07/11 07:35:15;;;;;;;1.10;1.10;;;26.70;99.90;;;;;;4876479;29;21000;-79
2021/07/11 07:37:41;;;;;;;1.20;1.20;;;26.70;99.90;;;;;;4879853;29;20442;-83
2021/07/11 07:40:07;;;;;;;2.80;1.35;;;26.80;99.90;;;;;;4876504;29;20402;-78
2021/07/11 07:42:33;;;;;;;1.20;1.20;;;26.80;99.90;;;;;;4874095;29;21063;-78
2021/07/11 07:44:58;;;;;;;1.00;1.00;;;26.90;99.90;;;;;;4874533;29;20434;-78
2021/07/11 07:47:24;;;;;;;1.13;1.08;;;26.80;99.90;;;;;;4873274;29;20390;-78
2021/07/11 07:49:51;;;;;;;0.97;0.97;;;26.90;99.90;;;;;;4893290;29;20906;-77
2021/07/11 07:52:16;;;;;;;9.35;1.50;;;27.00;99.90;;;;;;4883741;29;20430;-79
2021/07/11 07:54:42;;;;;;;1.47;1.37;;;27.20;99.90;;;;;;4878055;29;22270;-78
2021/07/11 07:57:08;;;;;;;1.30;1.20;;;27.30;99.90;;;;;;4878533;29;20495;-78
2021/07/11 07:59:33;;;;;;;1.40;1.30;;;27.30;99.90;;;;;;4878341;29;20799;-78
2021/07/11 08:01:59;;;;;;;1.30;1.20;;;27.30;99.90;;;;;;4882774;29;20455;-77
2021/07/11 08:04:25;;;;;;;1.05;1.00;;;27.50;99.90;;;;;;4894866;29;20830;-77
2021/07/11 08:06:50;;;;;;;1.30;1.30;;;27.40;99.90;;;;;;4867336;29;20439;-77
2021/07/11 08:09:17;;;;;;;1.30;1.20;;;27.30;99.90;;;;;;4862044;29;20419;-77
2021/07/11 08:11:43;;;;;;;1.40;1.30;;;27.30;99.90;;;;;;4881534;29;20518;-77
2021/07/11 08:14:09;;;;;;;1.10;1.10;;;27.50;99.90;;;;;;4890407;29;20945;-77
2021/07/11 08:16:35;;;;;;;1.38;1.20;;;27.70;99.90;;;;;;4860718;29;20415;-77
2021/07/11 08:19:01;;;;;;;1.10;1.10;;;28.00;99.90;;;;;;4875756;29;20395;-77
2021/07/11 08:21:26;;;;;;;1.27;1.17;;;28.10;99.90;;;;;;4900658;29;20407;-76
2021/07/11 08:23:52;;;;;;;1.30;1.20;;;28.30;99.90;;;;;;4883741;29;20416;-78
2021/07/11 08:26:18;;;;;;;1.08;1.08;;;28.30;99.90;;;;;;4880094;29;20422;-77
2021/07/11 08:28:44;;;;;;;1.10;1.10;;;28.20;99.90;;;;;;4860121;29;20479;-77
2021/07/11 08:31:09;;;;;;;1.20;1.20;;;28.40;99.90;;;;;;4882574;29;20423;-77
2021/07/11 08:33:35;;;;;;;1.10;1.10;;;28.50;99.90;;;;;;4886858;29;20892;-77
2021/07/11 08:36:04;;;;;;;1.30;1.20;;;28.80;99.90;;;;;;4862143;29;20924;-76
2021/07/11 08:38:30;;;;;;;0.93;0.93;;;28.90;99.90;;;;;;4876893;29;20544;-77
2021/07/11 08:40:56;;;;;;;1.00;1.00;;;29.10;99.70;;;;;;4880083;29;20445;-76
2021/07/11 08:43:21;;;;;;;1.25;1.10;;;28.90;98.80;;;;;;4879168;29;21127;-77
2021/07/11 08:45:47;;;;;;;1.00;1.00;;;29.00;99.90;;;;;;4876189;29;20414;-75
2021/07/11 08:48:13;;;;;;;1.10;1.10;;;29.30;99.30;;;;;;4864141;29;20416;-78
2021/07/11 08:50:38;;;;;;;1.08;1.08;;;29.50;99.10;;;;;;4885465;29;20423;-77
2021/07/11 08:53:04;;;;;;;1.10;1.10;;;29.50;98.90;;;;;;4860787;29;20480;-77
2021/07/11 08:55:30;;;;;;;1.13;1.00;;;29.60;98.20;;;;;;4884717;29;20412;-79
2021/07/11 08:57:58;;;;;;;1.55;1.17;;;29.70;97.20;;;;;;4890224;29;20768;-78
2021/07/11 09:00:32;;;;;;;0.93;0.93;;;29.60;96.50;;;;;;4882865;29;21015;-78
2021/07/11 09:02:57;;;;;;;1.40;1.30;;;29.70;96.80;;;;;;4895659;29;20415;-79
2021/07/11 09:05:24;;;;;;;1.40;1.20;;;30.10;98.60;;;;;;4875882;29;20407;-79
2021/07/11 09:07:59;;;;;;;1.03;1.03;;;30.30;96.00;;;;;;4872536;29;20432;-76
2021/07/11 09:10:29;;;;;;;1.23;1.13;;;30.30;96.40;;;;;;4876660;29;20430;-77
2021/07/11 09:12:55;;;;;;;1.30;1.20;;;30.40;94.90;;;;;;4873207;29;20415;-77
2021/07/11 09:15:35;;;;;;;1.00;1.00;;;30.50;94.70;;;;;;4872621;29;20786;-76
2021/07/11 09:18:01;;;;;;;1.10;1.10;;;30.70;94.50;;;;;;4882420;29;20499;-76
2021/07/11 09:20:26;;;;;;;1.00;1.00;;;31.00;93.20;;;;;;4875371;29;21111;-77
2021/07/11 09:23:02;;;;;;;1.80;1.30;;;31.00;93.60;;;;;;4897199;29;20538;-78
2021/07/11 09:25:28;;;;;;;1.08;1.08;;;31.20;92.70;;;;;;4877194;29;20923;-77
2021/07/11 09:27:54;;;;;;;1.00;1.00;;;31.10;92.30;;;;;;4862087;29;20418;-77
2021/07/11 09:30:19;;;;;;;1.30;1.23;;;31.00;92.20;;;;;;4909214;29;20422;-79
2021/07/11 09:32:45;;;;;;;1.60;1.30;;;30.90;91.30;;;;;;4878950;29;20437;-77
2021/07/11 09:35:15;;;;;;;1.30;1.20;;;31.00;92.20;;;;;;4897591;29;20442;-77
2021/07/11 09:37:45;;;;;;;1.42;1.33;;;31.30;93.00;;;;;;4875615;29;20430;-77
2021/07/11 09:40:14;;;;;;;1.10;1.10;;;30.90;90.90;;;;;;4874072;29;20427;-78
2021/07/11 09:42:41;;;;;;;1.30;1.10;;;31.20;92.50;;;;;;4897525;29;20569;-79
2021/07/11 09:45:21;;;;;;;1.00;1.00;;;31.50;90.40;;;;;;4861996;29;20411;-78
2021/07/11 09:47:51;;;;;;;1.00;1.00;;;31.60;91.90;;;;;;4872671;29;20459;-80
2021/07/11 09:50:21;;;;;;;1.25;1.20;;;31.90;91.20;;;;;;4860221;29;20452;-79
2021/07/11 09:52:49;;;;;;;1.20;1.20;;;31.50;90.20;;;;;;4881250;29;20443;-80
2021/07/11 09:55:20;;;;;;;0.93;0.93;;;31.70;91.20;;;;;;4879535;29;20431;-78
2021/07/11 09:57:59;;;;;;;1.10;1.10;;;31.50;90.50;;;;;;4878018;29;20419;-76
2021/07/11 10:00:32;;;;;;;0.90;0.90;;;31.40;90.10;;;;;;4892485;29;20438;-77
2021/07/11 10:02:59;;;;;;;1.00;1.00;;;31.50;90.40;;;;;;4865989;29;20431;-75
2021/07/11 10:05:25;;;;;;;0.90;0.90;;;31.50;89.00;;;;;;4877348;29;20417;-84
2021/07/11 10:07:52;;;;;;;1.00;1.00;;;31.10;86.60;;;;;;4895995;29;20439;-79
2021/07/11 10:10:20;;;;;;;1.30;1.20;;;31.20;89.80;;;;;;4859703;29;20746;-76
2021/07/11 10:12:49;;;;;;;2.60;0.98;;;31.40;89.70;;;;;;4899787;29;20403;-79
2021/07/11 10:15:19;;;;;;;1.10;1.10;;;31.40;88.90;;;;;;4883802;29;20926;-81
2021/07/11 10:17:54;;;;;;;0.95;0.93;;;31.50;87.80;;;;;;4876291;29;20948;-76
2021/07/11 10:20:21;;;;;;;1.00;1.00;;;31.90;90.00;;;;;;4895729;29;20428;-75
2021/07/11 10:22:52;;;;;;;0.95;0.95;;;32.10;85.20;;;;;;4899438;29;20421;-78
2021/07/11 10:25:20;;;;;;;1.00;1.00;;;31.50;84.60;;;;;;4870025;29;20474;-76
2021/07/11 10:27:46;;;;;;;1.30;1.10;;;32.00;88.50;;;;;;4871535;29;20442;-76
2021/07/11 10:30:12;;;;;;;1.33;1.23;;;31.90;84.60;;;;;;4856287;29;20417;-78
2021/07/11 10:32:38;;;;;;;1.05;1.05;;;31.80;85.50;;;;;;4875521;29;20968;-76
2021/07/11 10:35:11;;;;;;;1.00;1.00;;;31.60;84.70;;;;;;4876295;29;20510;-77
2021/07/11 10:37:44;;;;;;;1.10;1.10;;;31.90;87.30;;;;;;4875049;29;20438;-77
2021/07/11 10:40:18;;;;;;;1.00;1.00;;;32.10;87.80;;;;;;4866783;29;20423;-81
2021/07/11 10:42:44;;;;;;;1.10;1.10;;;32.10;83.30;;;;;;4865432;29;20441;-77
2021/07/11 10:45:11;;;;;;;1.23;1.13;;;32.00;84.30;;;;;;4861480;29;20438;-75
2021/07/11 10:47:37;;;;;;;1.25;1.25;;;32.30;83.80;;;;;;4868761;29;20773;-77
2021/07/11 10:50:07;;;;;;;2.00;1.20;;;32.20;81.10;;;;;;4885157;29;20455;-75
2021/07/11 10:52:36;;;;;;;1.10;1.10;;;32.40;84.20;;;;;;4883286;29;20422;-82
2021/07/11 10:55:04;;;;;;;1.27;1.27;;;32.20;82.80;;;;;;4874336;29;20832;-78
2021/07/11 10:57:36;;;;;;;1.23;1.13;;;31.90;81.30;;;;;;4866966;29;20414;-74
2021/07/11 11:00:30;;;;;;;1.00;1.00;;;31.90;82.00;;;;;;4874363;29;20494;-77
2021/07/11 11:02:56;;;;;;;1.05;1.05;;;32.30;84.70;;;;;;4876519;29;20883;-76
2021/07/11 11:05:25;;;;;;;1.10;1.10;;;32.70;82.40;;;;;;4876739;29;20495;-76
2021/07/11 11:07:52;;;;;;;1.27;1.25;;;32.40;79.00;;;;;;4861882;29;20934;-75
2021/07/11 11:10:24;;;;;;;1.38;1.27;;;32.30;82.00;;;;;;4876891;29;20529;-76
2021/07/11 11:13:20;;;;;;;2.08;1.30;;;32.50;75.80;;;;;;4876589;29;20501;-77
2021/07/11 11:15:56;;;;;;;1.10;1.10;;;32.80;80.80;;;;;;4881573;29;20429;-76
2021/07/11 11:18:31;;;;;;;1.08;1.08;;;32.80;77.30;;;;;;4879160;29;20935;-77
2021/07/11 11:20:58;;;;;;;1.10;1.05;;;33.00;81.80;;;;;;4873075;29;20405;-77
2021/07/11 11:23:25;;;;;;;1.40;1.30;;;33.50;80.60;;;;;;4885729;29;20425;-75
2021/07/11 11:25:52;;;;;;;0.88;0.88;;;33.90;80.70;;;;;;4878204;29;20425;-78
2021/07/11 11:28:29;;;;;;;1.08;1.08;;;34.40;78.90;;;;;;4888304;29;20946;-75
2021/07/11 11:31:30;;;;;;;1.35;1.15;;;34.50;75.00;;;;;;4881114;29;20411;-79
2021/07/11 11:34:06;;;;;;;0.90;0.90;;;34.30;71.60;;;;;;4877106;29;20395;-76
2021/07/11 11:36:32;;;;;;;1.15;1.10;;;34.20;75.90;;;;;;4893112;29;20407;-75
2021/07/11 11:39:01;;;;;;;0.90;0.90;;;34.30;75.90;;;;;;4896787;29;20503;-77
2021/07/11 11:41:27;;;;;;;1.00;1.00;;;34.30;68.70;;;;;;4889681;29;20420;-78
2021/07/11 11:43:52;;;;;;;1.10;1.10;;;34.60;73.30;;;;;;4877588;29;20937;-75
2021/07/11 11:46:28;;;;;;;1.20;1.20;;;34.70;68.90;;;;;;4875984;29;20407;-82
2021/07/11 11:49:02;;;;;;;0.93;0.93;;;34.70;69.40;;;;;;4894649;29;20430;-82
2021/07/11 11:51:28;;;;;;;1.60;1.10;;;34.70;68.40;;;;;;4876807;29;21043;-75
2021/07/11 11:53:54;;;;;;;1.30;1.20;;;34.50;69.30;;;;;;4892392;29;20407;-75
2021/07/11 11:56:19;;;;;;;1.20;1.10;;;34.30;68.00;;;;;;4883123;29;20406;-75
2021/07/11 11:58:45;;;;;;;1.20;1.10;;;33.90;66.60;;;;;;4861570;29;20494;-79
2021/07/11 12:01:15;;;;;;;1.05;1.05;;;34.20;66.40;;;;;;4889201;29;20407;-78
2021/07/11 12:03:41;;;;;;;1.58;1.10;;;34.30;68.90;;;;;;4877842;29;20486;-79
2021/07/11 12:06:13;;;;;;;1.10;1.10;;;34.50;66.70;;;;;;4875795;29;20416;-76
2021/07/11 12:08:44;;;;;;;1.00;1.00;;;34.70;67.90;;;;;;4882590;29;20399;-81
2021/07/11 12:11:11;;;;;;;1.00;1.00;;;35.20;67.30;;;;;;4901384;29;20410;-81
2021/07/11 12:13:36;;;;;;;1.05;1.05;;;35.70;66.00;;;;;;4877338;29;20429;-79
2021/07/11 12:16:12;;;;;;;1.10;1.10;;;35.60;64.00;;;;;;4905607;29;20411;-81
2021/07/11 12:18:51;;;;;;;0.90;0.90;;;35.30;66.00;;;;;;4866920;29;20431;-79
2021/07/11 12:21:28;;;;;;;1.02;1.02;;;34.40;57.60;;;;;;4872364;29;20769;-80
2021/07/11 12:24:02;;;;;;;1.00;1.00;;;35.10;65.40;;;;;;4883090;29;20459;-79
2021/07/11 12:26:29;;;;;;;1.20;1.20;;;34.90;58.40;;;;;;4881889;29;20425;-80
2021/07/11 12:28:57;;;;;;;1.02;1.02;;;35.40;64.30;;;;;;4869954;29;20443;-80
2021/07/11 12:31:28;;;;;;;1.00;1.00;;;35.60;61.20;;;;;;4898993;29;20478;-80
2021/07/11 12:34:05;;;;;;;1.23;1.10;;;35.80;60.70;;;;;;4891506;29;20406;-80
2021/07/11 12:36:31;;;;;;;1.00;1.00;;;35.30;63.30;;;;;;4872830;29;20424;-81
2021/07/11 12:38:57;;;;;;;1.02;1.02;;;35.30;59.60;;;;;;4879726;29;20459;-81
2021/07/11 12:41:26;;;;;;;1.05;1.05;;;35.10;64.00;;;;;;4889833;29;20437;-79
2021/07/11 12:43:59;;;;;;;1.20;1.20;;;35.30;63.00;;;;;;4890171;29;20463;-78
2021/07/11 12:46:26;;;;;;;1.30;1.20;;;35.50;61.00;;;;;;4874458;29;21110;-79
2021/07/11 12:49:08;;;;;;;1.20;1.20;;;35.80;62.60;;;;;;4878442;29;20426;-77
2021/07/11 12:51:38;;;;;;;1.33;1.30;;;35.40;56.00;;;;;;4885319;29;20437;-78